createdAt,value
2022-11-14T00:02:39.525Z,99.90
2022-11-14T00:05:46.167Z,99.90
2022-11-14T00:08:50.834Z,99.90
2022-11-14T00:11:56.401Z,99.90
2022-11-14T00:15:01.305Z,99.90
2022-11-14T00:18:05.945Z,99.90
2022-11-14T00:21:10.548Z,99.90
2022-11-14T00:24:15.561Z,99.90
2022-11-14T00:27:20.410Z,99.90
2022-11-14T00:30:26.461Z,99.90
2022-11-14T00:33:31.565Z,99.90
2022-11-14T00:36:36.940Z,99.90
2022-11-14T00:39:41.817Z,99.90
2022-11-14T00:42:46.626Z,99.90
2022-11-14T00:45:51.365Z,99.70
2022-11-14T00:48:56.297Z,99.90
2022-11-14T00:52:01.392Z,99.90
2022-11-14T00:55:06.691Z,99.90
2022-11-14T00:58:11.283Z,99.90
2022-11-14T01:01:16.334Z,99.80
2022-11-14T01:04:21.145Z,99.90
2022-11-14T01:07:26.121Z,99.90
2022-11-14T01:10:31.193Z,99.90
2022-11-14T01:13:35.993Z,99.90
2022-11-14T01:16:40.882Z,99.90
2022-11-14T01:19:45.768Z,99.90
2022-11-14T01:22:50.743Z,99.90
2022-11-14T01:26:01.100Z,99.90
2022-11-14T01:29:06.027Z,99.90
2022-11-14T01:32:10.860Z,99.70
2022-11-14T01:35:16.005Z,99.60
2022-11-14T01:38:20.938Z,99.80
2022-11-14T01:41:25.700Z,99.90
2022-11-14T01:44:50.045Z,99.90
2022-11-14T01:47:54.862Z,99.90
2022-11-14T01:51:16.753Z,99.90
2022-11-14T01:54:28.231Z,99.90
2022-11-14T01:57:46.724Z,99.90
2022-11-14T02:00:51.484Z,99.90
2022-11-14T02:03:57.293Z,99.90
2022-11-14T02:07:04.501Z,99.90
2022-11-14T02:10:19.546Z,99.90
2022-11-14T02:13:24.427Z,99.90
2022-11-14T02:16:29.576Z,99.90
2022-11-14T02:19:41.855Z,99.90
2022-11-14T02:22:46.845Z,99.90
2022-11-14T02:25:51.927Z,99.90
2022-11-14T02:28:57.577Z,99.90
2022-11-14T02:32:05.699Z,99.90
2022-11-14T02:35:14.744Z,99.90
2022-11-14T02:38:19.749Z,99.90
2022-11-14T02:41:24.383Z,99.90
2022-11-14T02:44:29.306Z,99.90
2022-11-14T02:47:34.113Z,99.90
2022-11-14T02:50:38.906Z,99.90
2022-11-14T02:53:43.842Z,99.90
2022-11-14T02:56:48.898Z,99.90
2022-11-14T02:59:53.421Z,99.90
2022-11-14T03:02:58.761Z,99.90
2022-11-14T03:06:04.635Z,99.90
2022-11-14T03:09:09.238Z,99.90
2022-11-14T03:12:19.933Z,99.90
2022-11-14T03:15:25.193Z,99.90
2022-11-14T03:18:30.205Z,99.90
2022-11-14T03:21:35.384Z,99.90
2022-11-14T03:24:40.313Z,99.90
2022-11-14T03:27:45.415Z,99.90
2022-11-14T03:30:50.287Z,99.70
2022-11-14T03:33:55.120Z,99.00
2022-11-14T03:37:00.714Z,99.60
2022-11-14T03:40:06.648Z,99.70
2022-11-14T03:43:11.378Z,99.60
2022-11-14T03:46:16.122Z,99.20
2022-11-14T03:49:21.376Z,99.00
2022-11-14T03:52:26.296Z,99.30
2022-11-14T03:55:31.080Z,99.00
2022-11-14T03:58:36.024Z,98.90
2022-11-14T04:01:41.004Z,98.90
2022-11-14T04:04:46.090Z,98.80
2022-11-14T04:07:51.607Z,99.00
2022-11-14T04:10:56.360Z,99.60
2022-11-14T04:14:01.021Z,99.90
2022-11-14T04:17:05.843Z,99.90
2022-11-14T04:20:11.620Z,99.50
2022-11-14T04:23:16.605Z,99.80
2022-11-14T04:26:21.346Z,99.80
2022-11-14T04:29:26.415Z,99.90
2022-11-14T04:32:31.277Z,99.70
2022-11-14T04:35:36.230Z,99.60
2022-11-14T04:38:40.961Z,99.70
2022-11-14T04:41:45.528Z,99.60
2022-11-14T04:44:50.747Z,99.40
2022-11-14T04:47:55.604Z,99.30
2022-11-14T04:51:00.189Z,99.20
2022-11-14T04:54:05.156Z,99.00
2022-11-14T04:57:09.888Z,99.00
2022-11-14T05:00:15.571Z,98.90
2022-11-14T05:03:20.520Z,98.90
2022-11-14T05:06:25.625Z,98.80
2022-11-14T05:09:30.561Z,98.50
2022-11-14T05:12:35.309Z,98.50
2022-11-14T05:15:40.285Z,98.40
2022-11-14T05:18:47.145Z,98.80
2022-11-14T05:21:52.081Z,99.20
2022-11-14T05:24:57.016Z,99.60
2022-11-14T05:28:02.278Z,99.50
2022-11-14T05:31:13.657Z,99.90
2022-11-14T05:34:18.914Z,99.90
2022-11-14T05:37:23.825Z,99.90
2022-11-14T05:40:28.875Z,99.90
2022-11-14T05:43:33.422Z,99.50
2022-11-14T05:46:38.482Z,99.40
2022-11-14T05:49:43.488Z,99.50
2022-11-14T05:52:48.608Z,99.90
2022-11-14T05:55:53.317Z,99.90
2022-11-14T05:58:58.262Z,99.70
2022-11-14T06:02:03.249Z,99.60
2022-11-14T06:05:08.476Z,99.40
2022-11-14T06:08:13.770Z,99.50
2022-11-14T06:11:20.644Z,99.80
2022-11-14T06:14:25.777Z,99.70
2022-11-14T06:17:30.729Z,99.80
2022-11-14T06:20:36.516Z,99.70
2022-11-14T06:23:41.596Z,99.50
2022-11-14T06:26:46.389Z,99.60
2022-11-14T06:29:51.370Z,99.40
2022-11-14T06:32:59.535Z,99.10
2022-11-14T06:36:07.286Z,99.30
2022-11-14T06:39:12.328Z,99.20
2022-11-14T06:42:17.633Z,99.40
2022-11-14T06:45:22.778Z,99.90
2022-11-14T06:48:28.923Z,99.90
2022-11-14T06:51:34.207Z,99.40
2022-11-14T06:54:39.041Z,99.60
2022-11-14T06:57:43.929Z,99.90
2022-11-14T07:00:49.005Z,99.70
2022-11-14T07:03:54.008Z,99.30
2022-11-14T07:06:58.735Z,99.20
2022-11-14T07:10:03.691Z,98.90
2022-11-14T07:13:10.437Z,98.70
2022-11-14T07:16:15.463Z,98.90
2022-11-14T07:19:20.245Z,99.20
2022-11-14T07:22:25.234Z,99.00
2022-11-14T07:25:30.362Z,98.80
2022-11-14T07:28:39.913Z,98.90
2022-11-14T07:31:44.488Z,98.80
2022-11-14T07:34:49.490Z,98.70
2022-11-14T07:38:00.682Z,98.60
2022-11-14T07:41:11.034Z,98.20
2022-11-14T07:44:15.713Z,98.20
2022-11-14T07:47:20.410Z,98.30
2022-11-14T07:50:26.701Z,98.40
2022-11-14T07:53:32.217Z,97.80
2022-11-14T07:56:36.929Z,98.60
2022-11-14T07:59:41.965Z,98.00
2022-11-14T08:02:48.482Z,98.10
2022-11-14T08:06:01.359Z,98.40
2022-11-14T08:09:06.089Z,98.70
2022-11-14T08:12:10.956Z,98.80
2022-11-14T08:15:15.986Z,98.50
2022-11-14T08:18:21.162Z,98.60
2022-11-14T08:21:25.896Z,98.50
2022-11-14T08:24:30.886Z,98.40
2022-11-14T08:27:35.781Z,98.20
2022-11-14T08:30:40.769Z,98.10
2022-11-14T08:33:45.961Z,97.70
2022-11-14T08:36:51.288Z,97.30
2022-11-14T08:39:56.189Z,97.20
2022-11-14T08:43:02.159Z,97.00
2022-11-14T08:46:06.688Z,97.30
2022-11-14T08:49:13.047Z,96.70
2022-11-14T08:52:17.981Z,96.70
2022-11-14T08:55:22.966Z,96.70
2022-11-14T08:58:30.668Z,95.90
2022-11-14T09:01:35.866Z,96.00
2022-11-14T09:04:40.785Z,96.70
2022-11-14T09:07:45.619Z,97.10
2022-11-14T09:10:50.563Z,97.40
2022-11-14T09:13:55.129Z,97.00
2022-11-14T09:17:05.571Z,97.00
2022-11-14T09:20:10.500Z,96.60
2022-11-14T09:23:15.340Z,96.10
2022-11-14T09:26:20.429Z,96.40
2022-11-14T09:29:25.544Z,96.70
2022-11-14T09:32:30.222Z,96.70
2022-11-14T09:35:37.829Z,96.00
2022-11-14T09:38:44.363Z,96.00
2022-11-14T09:42:17.137Z,95.70
2022-11-14T09:45:22.524Z,95.20
2022-11-14T09:48:30.374Z,95.30
2022-11-14T09:51:45.220Z,95.30
2022-11-14T09:55:04.247Z,95.70
2022-11-14T09:58:15.920Z,95.70
2022-11-14T10:01:33.344Z,95.50
2022-11-14T10:04:41.371Z,95.40
2022-11-14T10:08:12.905Z,95.50
2022-11-14T10:11:52.811Z,95.70
2022-11-14T10:15:20.533Z,95.20
2022-11-14T10:18:46.461Z,95.00
2022-11-14T10:22:03.713Z,94.80
2022-11-14T10:25:44.217Z,94.50
2022-11-14T10:29:01.814Z,94.40
2022-11-14T10:32:06.341Z,95.00
2022-11-14T10:35:21.977Z,94.50
2022-11-14T10:38:34.606Z,94.50
2022-11-14T10:41:56.687Z,94.60
2022-11-14T10:45:18.032Z,94.90
2022-11-14T10:48:28.632Z,94.70
2022-11-14T10:51:42.446Z,94.20
2022-11-14T10:55:06.537Z,94.30
2022-11-14T10:58:14.714Z,94.50
2022-11-14T11:01:42.622Z,94.60
2022-11-14T11:04:47.805Z,94.60
2022-11-14T11:08:36.191Z,94.70
2022-11-14T11:11:40.037Z,95.80
2022-11-14T11:14:51.476Z,95.70
2022-11-14T11:18:03.400Z,95.70
2022-11-14T11:21:13.302Z,95.90
2022-11-14T11:24:32.997Z,96.10
2022-11-14T11:27:38.209Z,96.20
2022-11-14T11:31:15.325Z,96.30
2022-11-14T11:34:27.467Z,96.40
2022-11-14T11:38:15.615Z,96.30
2022-11-14T11:45:01.654Z,96.00
2022-11-14T11:48:14.546Z,95.70
2022-11-14T11:51:25.320Z,95.10
2022-11-14T11:55:08.701Z,94.90
2022-11-14T11:58:25.751Z,95.10
2022-11-14T12:01:30.603Z,94.30
2022-11-14T12:04:35.350Z,93.40
2022-11-14T12:08:06.540Z,92.50
2022-11-14T12:11:17.365Z,92.00
2022-11-14T12:14:28.280Z,90.60
2022-11-14T12:17:54.367Z,88.10
2022-11-14T12:21:04.698Z,84.60
2022-11-14T12:24:49.828Z,83.30
2022-11-14T12:28:19.496Z,81.10
2022-11-14T12:31:24.360Z,80.30
2022-11-14T12:34:39.960Z,79.70
2022-11-14T12:37:54.191Z,79.20
2022-11-14T12:41:01.951Z,80.10
2022-11-14T12:44:28.667Z,80.30
2022-11-14T12:47:33.795Z,80.20
2022-11-14T12:50:43.252Z,79.80
2022-11-14T12:53:48.119Z,79.90
2022-11-14T12:57:01.406Z,79.20
2022-11-14T13:00:08.877Z,81.00
2022-11-14T13:03:16.465Z,81.30
2022-11-14T13:07:08.020Z,80.30
2022-11-14T13:10:32.020Z,80.10
2022-11-14T13:14:30.433Z,82.00
2022-11-14T13:17:54.105Z,82.40
2022-11-14T13:21:23.823Z,81.50
2022-11-14T13:24:57.623Z,82.90
2022-11-14T13:28:40.293Z,84.20
2022-11-14T13:31:50.637Z,85.20
2022-11-14T13:35:03.286Z,86.40
2022-11-14T13:38:28.405Z,86.40
2022-11-14T13:42:13.884Z,86.50
2022-11-14T13:45:37.450Z,85.80
2022-11-14T13:49:13.434Z,85.80
2022-11-14T13:52:18.505Z,87.20
2022-11-14T13:55:47.423Z,87.30
2022-11-14T13:59:22.458Z,88.00
2022-11-14T14:03:06.110Z,88.90
2022-11-14T14:06:22.758Z,89.10
2022-11-14T14:09:53.765Z,89.50
2022-11-14T14:13:17.014Z,89.20
2022-11-14T14:17:02.413Z,89.20
2022-11-14T14:20:45.156Z,83.00
2022-11-14T14:24:17.804Z,77.40
2022-11-14T14:27:47.741Z,78.60
2022-11-14T14:31:10.855Z,79.60
2022-11-14T14:34:29.945Z,80.10
2022-11-14T14:37:35.068Z,82.10
2022-11-14T14:40:42.113Z,83.20
2022-11-14T14:43:56.830Z,81.30
2022-11-14T14:47:30.561Z,81.80
2022-11-14T14:50:40.640Z,81.80
2022-11-14T14:53:52.949Z,83.40
2022-11-14T14:57:03.428Z,85.40
2022-11-14T15:00:21.877Z,87.30
2022-11-14T15:03:46.289Z,88.60
2022-11-14T15:06:51.545Z,90.10
2022-11-14T15:10:08.016Z,90.60
2022-11-14T15:13:17.725Z,91.10
2022-11-14T15:16:23.052Z,91.40
2022-11-14T15:19:37.932Z,91.60
2022-11-14T15:22:42.810Z,91.90
2022-11-14T15:25:47.949Z,92.30
2022-11-14T15:28:52.811Z,92.50
2022-11-14T15:32:00.883Z,92.60
2022-11-14T15:35:24.901Z,92.80
2022-11-14T15:38:45.392Z,93.00
2022-11-14T15:41:50.270Z,93.10
2022-11-14T15:44:56.349Z,93.10
2022-11-14T15:48:05.101Z,93.10
2022-11-14T15:51:10.202Z,93.00
2022-11-14T15:54:23.686Z,93.00
2022-11-14T15:57:28.712Z,92.90
2022-11-14T16:00:33.328Z,92.70
2022-11-14T16:03:38.218Z,92.60
2022-11-14T16:06:43.033Z,92.60
2022-11-14T16:09:48.283Z,92.70
2022-11-14T16:12:53.520Z,92.70
2022-11-14T16:15:58.509Z,92.70
2022-11-14T16:19:04.498Z,92.80
2022-11-14T16:22:13.205Z,93.00
2022-11-14T16:25:19.580Z,93.00
2022-11-14T16:28:24.377Z,93.00
2022-11-14T16:31:29.099Z,93.00
2022-11-14T16:34:33.938Z,93.10
2022-11-14T16:37:39.006Z,93.00
2022-11-14T16:40:44.732Z,93.30
2022-11-14T16:43:49.480Z,93.10
2022-11-14T16:46:54.481Z,93.10
2022-11-14T16:50:00.306Z,93.20
2022-11-14T16:53:05.140Z,93.00
2022-11-14T16:56:11.560Z,92.80
2022-11-14T16:59:16.521Z,92.80
2022-11-14T17:02:21.717Z,92.90
2022-11-14T17:05:26.859Z,93.10
2022-11-14T17:08:31.871Z,93.10
2022-11-14T17:11:36.621Z,93.10
2022-11-14T17:14:41.327Z,93.20
2022-11-14T17:17:50.165Z,93.20
2022-11-14T17:20:54.913Z,92.90
2022-11-14T17:24:04.225Z,93.10
2022-11-14T17:27:09.473Z,93.30
2022-11-14T17:30:14.897Z,93.50
2022-11-14T17:33:19.776Z,93.50
2022-11-14T17:36:30.250Z,93.40
2022-11-14T17:39:35.385Z,93.40
2022-11-14T17:42:40.283Z,93.30
2022-11-14T17:45:54.990Z,93.20
2022-11-14T17:49:00.093Z,93.30
2022-11-14T17:52:05.138Z,93.30
2022-11-14T17:55:10.037Z,93.30
2022-11-14T17:58:15.090Z,93.30
2022-11-14T18:01:22.169Z,93.30
2022-11-14T18:04:27.043Z,93.20
2022-11-14T18:07:33.094Z,93.10
2022-11-14T18:10:37.955Z,93.00
2022-11-14T18:13:43.118Z,93.50
2022-11-14T18:17:11.661Z,93.30
2022-11-14T18:20:12.809Z,93.30
2022-11-14T18:23:17.941Z,93.30
2022-11-14T18:26:27.568Z,93.40
2022-11-14T18:29:32.447Z,93.20
2022-11-14T18:32:37.053Z,93.10
2022-11-14T18:35:41.644Z,93.00
2022-11-14T18:38:46.908Z,93.10
2022-11-14T18:41:51.907Z,93.10
2022-11-14T18:44:56.809Z,93.10
2022-11-14T18:48:01.948Z,93.30
2022-11-14T18:51:10.945Z,93.20
2022-11-14T18:54:17.723Z,93.10
2022-11-14T18:57:22.788Z,93.20
2022-11-14T19:00:27.652Z,93.00
2022-11-14T19:03:32.514Z,92.80
2022-11-14T19:06:40.590Z,93.10
2022-11-14T19:09:45.361Z,92.90
2022-11-14T19:12:50.549Z,92.80
2022-11-14T19:16:00.290Z,93.00
2022-11-14T19:19:06.710Z,93.20
2022-11-14T19:22:11.474Z,93.40
2022-11-14T19:25:16.489Z,93.50
2022-11-14T19:28:25.574Z,93.50
2022-11-14T19:31:31.033Z,93.40
2022-11-14T19:34:36.080Z,93.50
2022-11-14T19:37:40.557Z,93.90
2022-11-14T19:40:50.833Z,93.80
2022-11-14T19:43:57.925Z,94.10
2022-11-14T19:47:02.841Z,93.30
2022-11-14T19:50:08.173Z,93.60
2022-11-14T19:53:13.009Z,93.90
2022-11-14T19:56:19.015Z,94.20
2022-11-14T19:59:26.197Z,93.90
2022-11-14T20:02:30.919Z,94.50
2022-11-14T20:05:36.230Z,95.40
2022-11-14T20:08:41.089Z,95.50
2022-11-14T20:11:45.652Z,94.40
2022-11-14T20:14:50.412Z,94.00
2022-11-14T20:17:55.385Z,94.30
2022-11-14T20:21:08.922Z,94.60
2022-11-14T20:24:17.615Z,94.90
2022-11-14T20:27:22.186Z,95.00
2022-11-14T20:30:26.975Z,94.50
2022-11-14T20:33:36.010Z,94.70
2022-11-14T20:37:09.295Z,95.00
2022-11-14T20:40:06.453Z,95.10
2022-11-14T20:43:11.439Z,95.20
2022-11-14T20:46:18.441Z,95.00
2022-11-14T20:49:23.110Z,94.00
2022-11-14T20:52:27.985Z,93.80
2022-11-14T20:55:33.345Z,94.00
2022-11-14T20:58:39.798Z,94.10
2022-11-14T21:01:44.825Z,94.70
2022-11-14T21:04:49.531Z,95.30
2022-11-14T21:07:54.597Z,95.30
2022-11-14T21:11:02.341Z,95.20
2022-11-14T21:14:09.026Z,95.00
2022-11-14T21:17:13.876Z,94.40
2022-11-14T21:20:18.874Z,94.70
2022-11-14T21:23:23.573Z,94.90
2022-11-14T21:26:38.207Z,94.80
2022-11-14T21:29:42.920Z,94.70
2022-11-14T21:32:47.753Z,94.80
2022-11-14T21:35:52.896Z,94.70
2022-11-14T21:38:57.894Z,94.70
2022-11-14T21:42:02.765Z,94.70
2022-11-14T21:45:08.568Z,94.70
2022-11-14T21:48:13.337Z,94.70
2022-11-14T21:51:20.565Z,94.60
2022-11-14T21:54:25.283Z,94.60
2022-11-14T21:57:30.065Z,94.60
2022-11-14T22:00:34.846Z,94.70
2022-11-14T22:03:59.913Z,94.60
2022-11-14T22:07:07.239Z,94.60
2022-11-14T22:10:11.871Z,94.70
2022-11-14T22:13:16.857Z,94.60
2022-11-14T22:16:21.837Z,94.50
2022-11-14T22:19:26.625Z,94.50
2022-11-14T22:22:31.688Z,94.30
2022-11-14T22:25:36.371Z,93.70
2022-11-14T22:28:41.661Z,93.70
2022-11-14T22:31:46.321Z,94.00
2022-11-14T22:34:51.257Z,94.40
2022-11-14T22:37:56.090Z,94.90
2022-11-14T22:41:02.018Z,95.10
2022-11-14T22:44:06.629Z,94.80
2022-11-14T22:47:11.113Z,94.50
2022-11-14T22:50:16.163Z,94.60
2022-11-14T22:53:21.213Z,94.00
2022-11-14T22:56:28.798Z,94.10
2022-11-14T22:59:33.307Z,94.50
2022-11-14T23:02:38.153Z,94.60
2022-11-14T23:05:43.174Z,94.80
2022-11-14T23:08:48.086Z,94.90
2022-11-14T23:11:53.014Z,94.10
2022-11-14T23:14:58.084Z,94.10
2022-11-14T23:18:03.960Z,94.00
2022-11-14T23:21:17.484Z,94.70
2022-11-14T23:24:22.434Z,95.00
2022-11-14T23:27:27.684Z,95.10
2022-11-14T23:30:35.241Z,94.30
2022-11-14T23:33:39.805Z,95.00
2022-11-14T23:36:44.544Z,94.70
2022-11-14T23:39:49.402Z,94.20
2022-11-14T23:42:54.253Z,95.00
2022-11-14T23:45:59.201Z,95.30
2022-11-14T23:49:03.781Z,95.30
2022-11-14T23:52:08.923Z,95.30
2022-11-14T23:55:13.656Z,94.90
2022-11-14T23:58:18.573Z,94.50
